createdAt,value
2023-07-24T00:00:00.554Z,5.13
2023-07-24T00:05:04.076Z,5.20
2023-07-24T00:10:08.204Z,4.90
2023-07-24T00:15:13.170Z,5.88
2023-07-24T00:20:20.857Z,5.78
2023-07-24T00:25:24.324Z,6.15
2023-07-24T00:30:29.154Z,5.63
2023-07-24T00:35:32.574Z,6.65
2023-07-24T00:40:36.040Z,5.82
2023-07-24T00:45:40.940Z,5.68
2023-07-24T00:50:45.327Z,5.22
2023-07-24T00:55:49.383Z,5.30
2023-07-24T01:00:54.313Z,5.95
2023-07-24T01:05:58.299Z,5.40
2023-07-24T01:11:07.607Z,5.65
2023-07-24T01:16:16.369Z,5.32
2023-07-24T01:21:29.076Z,6.30
2023-07-24T01:26:34.574Z,5.63
2023-07-24T01:31:38.114Z,6.22
2023-07-24T01:36:41.705Z,5.50
2023-07-24T01:41:46.751Z,5.97
2023-07-24T01:46:50.222Z,5.65
2023-07-24T01:51:53.628Z,5.78
2023-07-24T01:56:58.412Z,6.00
2023-07-24T02:02:01.796Z,5.65
2023-07-24T02:07:05.861Z,6.03
2023-07-24T02:12:10.689Z,5.80
2023-07-24T02:17:14.152Z,5.72
2023-07-24T02:22:17.721Z,5.57
2023-07-24T02:27:29.957Z,5.55
2023-07-24T02:32:34.967Z,5.63
2023-07-24T02:37:38.538Z,5.32
2023-07-24T02:42:43.276Z,5.30
2023-07-24T02:47:46.853Z,5.43
2023-07-24T02:52:51.183Z,5.93
2023-07-24T02:57:56.104Z,5.70
2023-07-24T03:02:59.585Z,6.13
2023-07-24T03:08:03.273Z,5.80
2023-07-24T03:13:09.069Z,5.38
2023-07-24T03:18:12.491Z,5.45
2023-07-24T03:23:16.582Z,5.47
2023-07-24T03:28:21.438Z,5.25
2023-07-24T03:33:24.889Z,6.25
2023-07-24T03:38:28.503Z,5.82
2023-07-24T03:43:33.219Z,6.05
2023-07-24T03:48:37.667Z,5.30
2023-07-24T03:53:41.041Z,5.90
2023-07-24T03:58:45.873Z,6.38
2023-07-24T04:03:49.353Z,6.07
2023-07-24T04:08:54.017Z,6.13
2023-07-24T04:13:58.806Z,5.72
2023-07-24T04:19:02.229Z,5.57
2023-07-24T04:24:06.057Z,6.70
2023-07-24T04:29:10.834Z,6.18
2023-07-24T04:34:14.247Z,6.50
2023-07-24T04:39:17.685Z,5.72
2023-07-24T04:44:22.486Z,5.82
2023-07-24T04:49:25.930Z,5.30
2023-07-24T04:54:30.457Z,5.55
2023-07-24T04:59:35.234Z,5.50
2023-07-24T05:04:38.711Z,5.95
2023-07-24T05:09:42.146Z,6.03
2023-07-24T05:14:46.943Z,6.25
2023-07-24T05:19:50.331Z,6.18
2023-07-24T05:24:53.822Z,6.20
2023-07-24T05:29:58.624Z,6.22
2023-07-24T05:35:02.284Z,5.93
2023-07-24T05:40:07.064Z,5.90
2023-07-24T05:45:13.152Z,6.80
2023-07-24T05:50:16.618Z,5.60
2023-07-24T05:55:20.112Z,6.15
2023-07-24T06:00:25.031Z,6.13
2023-07-24T06:05:28.504Z,6.40
2023-07-24T06:10:31.934Z,6.63
2023-07-24T06:15:36.748Z,5.75
2023-07-24T06:20:40.157Z,6.18
2023-07-24T06:25:44.489Z,6.15
2023-07-24T06:30:49.221Z,6.07
2023-07-24T06:35:53.074Z,6.32
2023-07-24T06:40:56.648Z,5.95
2023-07-24T06:46:01.652Z,5.55
2023-07-24T06:51:05.312Z,5.88
2023-07-24T06:56:08.779Z,6.18
2023-07-24T07:01:13.663Z,6.40
2023-07-24T07:11:23.664Z,7.07
2023-07-24T07:16:28.660Z,6.25
2023-07-24T07:21:32.344Z,6.18
2023-07-24T07:26:35.834Z,6.75
2023-07-24T07:31:40.741Z,7.05
2023-07-24T07:36:44.307Z,6.70
2023-07-24T07:41:47.870Z,6.63
2023-07-24T07:46:52.760Z,6.65
2023-07-24T07:51:56.288Z,6.55
2023-07-24T07:56:59.748Z,7.13
2023-07-24T08:02:04.930Z,6.90
2023-07-24T08:07:08.540Z,7.35
2023-07-24T08:12:12.075Z,6.90
2023-07-24T08:17:17.183Z,6.82
2023-07-24T08:22:23.910Z,7.00
2023-07-24T08:27:27.374Z,7.45
2023-07-24T08:32:32.235Z,6.13
2023-07-24T08:37:35.656Z,6.25
2023-07-24T08:42:40.954Z,6.10
2023-07-24T08:47:46.662Z,6.35
2023-07-24T08:52:50.172Z,6.72
2023-07-24T08:57:53.957Z,6.05
2023-07-24T09:02:59.155Z,6.10
2023-07-24T09:08:02.860Z,6.50
2023-07-24T09:13:06.257Z,7.20
2023-07-24T09:18:11.572Z,7.35
2023-07-24T09:23:19.807Z,6.68
2023-07-24T09:28:27.973Z,7.78
2023-07-24T09:33:41.062Z,6.40
2023-07-24T09:38:47.057Z,6.10
2023-07-24T09:43:50.408Z,5.78
2023-07-24T09:54:08.941Z,5.00
2023-07-24T09:59:13.713Z,6.00
2023-07-24T10:04:18.896Z,5.82
2023-07-24T10:09:26.273Z,5.43
2023-07-24T10:14:32.862Z,5.50
2023-07-24T10:19:43.027Z,5.07
2023-07-24T10:30:00.569Z,4.72
2023-07-24T10:35:10.826Z,4.63
2023-07-24T10:40:22.766Z,4.95
2023-07-24T10:45:26.194Z,4.53
2023-07-24T10:50:40.748Z,4.35
2023-07-24T10:55:44.555Z,4.55
2023-07-24T11:00:48.685Z,4.38
2023-07-24T11:05:54.187Z,4.20
2023-07-24T11:10:59.228Z,4.70
2023-07-24T11:16:07.013Z,4.30
2023-07-24T11:21:14.557Z,4.88
2023-07-24T11:26:20.877Z,4.70
2023-07-24T11:31:24.454Z,4.40
2023-07-24T11:36:29.630Z,5.03
2023-07-24T11:41:33.665Z,5.22
2023-07-24T11:46:37.520Z,5.13
2023-07-24T11:51:42.504Z,4.85
2023-07-24T11:56:46.045Z,4.28
2023-07-24T12:01:50.208Z,4.38
2023-07-24T12:06:55.073Z,4.35
2023-07-24T12:12:01.083Z,4.90
2023-07-24T12:17:11.251Z,4.45
2023-07-24T12:27:22.176Z,5.20
2023-07-24T12:32:30.541Z,4.60
2023-07-24T12:37:36.007Z,4.47
2023-07-24T12:42:42.431Z,4.40
2023-07-24T12:47:47.584Z,4.30
2023-07-24T12:52:54.077Z,4.82
2023-07-24T12:57:58.302Z,4.80
2023-07-24T13:03:01.920Z,4.80
2023-07-24T13:08:06.930Z,4.60
2023-07-24T13:13:11.124Z,4.70
2023-07-24T13:18:27.780Z,4.20
2023-07-24T13:23:34.010Z,4.40
2023-07-24T13:28:37.484Z,3.92
2023-07-24T13:33:40.996Z,3.88
2023-07-24T13:38:45.917Z,4.13
2023-07-24T13:43:49.541Z,4.35
2023-07-24T13:48:53.015Z,3.70
2023-07-24T13:53:57.836Z,4.10
2023-07-24T13:59:01.510Z,4.78
2023-07-24T14:04:05.200Z,5.18
2023-07-24T14:09:10.439Z,4.78
2023-07-24T14:14:14.063Z,4.88
2023-07-24T14:19:18.649Z,4.63
2023-07-24T14:24:23.531Z,5.22
2023-07-24T14:29:26.992Z,5.47
2023-07-24T14:34:30.558Z,4.78
2023-07-24T14:39:35.445Z,4.47
2023-07-24T14:44:38.943Z,4.55
2023-07-24T14:49:42.364Z,4.07
2023-07-24T14:54:47.156Z,4.05
2023-07-24T14:59:50.659Z,3.50
2023-07-24T15:04:54.314Z,3.33
2023-07-24T15:09:59.336Z,3.40
2023-07-24T15:15:02.804Z,3.55
2023-07-24T15:20:09.229Z,3.45
2023-07-24T15:25:14.054Z,3.22
2023-07-24T15:30:17.569Z,3.35
2023-07-24T15:35:21.090Z,3.55
2023-07-24T15:40:25.934Z,3.25
2023-07-24T15:45:29.452Z,3.30
2023-07-24T15:50:32.904Z,3.00
2023-07-24T15:55:37.711Z,3.30
2023-07-24T16:00:41.340Z,3.00
2023-07-24T16:05:44.869Z,3.60
2023-07-24T16:10:49.618Z,3.20
2023-07-24T16:15:53.006Z,3.00
2023-07-24T16:20:56.484Z,3.90
2023-07-24T16:26:01.363Z,4.32
2023-07-24T16:31:04.775Z,3.30
2023-07-24T16:36:08.242Z,2.95
2023-07-24T16:41:13.275Z,2.47
2023-07-24T16:51:23.189Z,2.40
2023-07-24T16:56:27.992Z,2.10
2023-07-24T17:01:34.241Z,2.28
2023-07-24T17:06:38.144Z,2.80
2023-07-24T17:11:45.205Z,2.95
2023-07-24T17:16:48.881Z,3.10
2023-07-24T17:21:52.394Z,2.47
2023-07-24T17:26:57.285Z,1.90
2023-07-24T17:32:01.506Z,1.70
2023-07-24T17:37:05.336Z,2.20
2023-07-24T17:42:10.528Z,1.38
2023-07-24T17:47:13.960Z,1.65
2023-07-24T17:52:17.585Z,1.48
2023-07-24T17:57:22.612Z,1.45
2023-07-24T18:02:26.254Z,1.33
2023-07-24T18:07:29.737Z,1.77
2023-07-24T18:12:34.613Z,1.80
2023-07-24T18:17:38.068Z,1.50
2023-07-24T18:22:43.970Z,1.73
2023-07-24T18:27:48.821Z,1.38
2023-07-24T18:32:52.351Z,1.55
2023-07-24T18:37:56.839Z,1.20
2023-07-24T18:43:01.627Z,1.60
2023-07-24T18:48:05.583Z,1.33
2023-07-24T18:53:09.144Z,1.50
2023-07-24T18:58:14.422Z,0.85
2023-07-24T19:03:18.049Z,1.10
2023-07-24T19:08:21.493Z,1.27
2023-07-24T19:13:27.758Z,1.23
2023-07-24T19:18:31.247Z,1.15
2023-07-24T19:23:34.812Z,1.15
2023-07-24T19:28:39.595Z,1.50
2023-07-24T19:33:43.054Z,1.50
2023-07-24T19:38:46.714Z,1.27
2023-07-24T19:43:51.713Z,1.50
2023-07-24T19:48:55.936Z,1.15
2023-07-24T19:53:59.363Z,1.45
2023-07-24T19:59:04.269Z,1.30
2023-07-24T20:04:07.812Z,1.50
2023-07-24T20:09:11.273Z,1.25
2023-07-24T20:14:16.041Z,1.50
2023-07-24T20:19:19.438Z,1.40
2023-07-24T20:24:22.818Z,1.35
2023-07-24T20:29:27.670Z,1.40
2023-07-24T20:34:31.077Z,1.33
2023-07-24T20:39:34.515Z,1.30
2023-07-24T20:44:39.367Z,1.20
2023-07-24T20:49:42.833Z,1.25
2023-07-24T20:54:48.763Z,1.45
2023-07-24T20:59:53.566Z,1.60
2023-07-24T21:04:57.086Z,1.40
2023-07-24T21:10:00.523Z,1.60
2023-07-24T21:15:06.171Z,1.40
2023-07-24T21:20:10.317Z,1.50
2023-07-24T21:25:13.804Z,1.73
2023-07-24T21:30:19.936Z,1.45
2023-07-24T21:35:23.430Z,1.50
2023-07-24T21:40:26.884Z,1.55
2023-07-24T21:45:31.617Z,1.75
2023-07-24T21:50:35.210Z,1.58
2023-07-24T21:55:40.359Z,1.23
2023-07-24T22:00:45.241Z,1.98
2023-07-24T22:05:48.854Z,1.75
2023-07-24T22:10:52.388Z,1.27
2023-07-24T22:15:57.213Z,1.00
2023-07-24T22:21:00.741Z,1.58
2023-07-24T22:26:04.383Z,1.55
2023-07-24T22:31:12.930Z,1.40
2023-07-24T22:36:16.500Z,1.70
2023-07-24T22:41:20.041Z,1.50
2023-07-24T22:46:24.996Z,1.60
2023-07-24T22:51:28.775Z,2.10
2023-07-24T22:56:32.364Z,1.90
2023-07-24T23:01:37.130Z,1.83
2023-07-24T23:06:40.502Z,1.52
2023-07-24T23:11:44.300Z,1.60
2023-07-24T23:16:49.074Z,1.85
2023-07-24T23:21:52.562Z,1.80
2023-07-24T23:26:56.497Z,2.10
2023-07-24T23:32:01.354Z,2.30
2023-07-24T23:37:09.473Z,2.30
2023-07-24T23:42:12.937Z,1.85
2023-07-24T23:47:17.876Z,2.00
2023-07-24T23:52:21.493Z,2.00
2023-07-24T23:57:28.804Z,2.80
